Monday, August 31, 2015, 3:44 PM EDT
Back to Local

KMPO, Mt Pocono Pocono Mountains

Location: Pocono Summit, PA, United States Lat: 41.133
Local Time: 3:44 PM EDT (19:44 GMT) Lon: -75.383
Time Zone: US/Eastern Elev: 1915 ft

Show me the last for .
Show Decoded

2015-08-31 13:53 METAR KMPO 311753Z AUTO 28008KT 10SM SCT040 SCT050 26/17 A3010 RMK AO2 SLP181
                 T02610172 10267 20194 58008 =
2015-08-31 12:53 METAR KMPO 311653Z AUTO 30008KT 10SM FEW031 SCT042 BKN050 26/19 A3012 RMK AO2
                 SLP186 T02560189 =
2015-08-31 11:53 METAR KMPO 311553Z AUTO 30010KT 10SM FEW026 SCT042 BKN050 26/19 A3013 RMK AO2
                 SLP188 T02610189 =
2015-08-31 10:53 METAR KMPO 311453Z AUTO 28007KT 8SM CLR 24/19 A3013 RMK AO2 SLP190 T02390194
                 53001 =
2015-08-31 09:53 METAR KMPO 311353Z AUTO 29007KT 8SM CLR 22/19 A3013 RMK AO2 SLP191 T02170189 =
2015-08-31 08:53 METAR KMPO 311253Z AUTO 29005KT 7SM CLR 21/18 A3012 RMK AO2 SLP191 T02060183 =
2015-08-31 07:53 METAR KMPO 311153Z AUTO 28003KT 4SM BR SCT100 19/18 A3012 RMK AO2 SLP190 70005
                 T01890178 10200 20183 52010 =
2015-08-31 06:53 METAR KMPO 311053Z AUTO 31006KT 5SM BR CLR 19/18 A3011 RMK AO2 SLP186 T01940178
                 =
2015-08-31 04:53 METAR KMPO 310853Z AUTO 29007KT 9SM SCT110 19/17 A3009 RMK AO2 SLP178 T01940172
                 55003 =
2015-08-31 03:53 METAR KMPO 310753Z AUTO 30007KT 9SM CLR 19/17 A3009 RMK AO2 SLP175 T01940172 =
2015-08-31 02:53 METAR KMPO 310653Z AUTO 29005KT 8SM FEW110 19/18 A3009 RMK AO2 SLP178 T01890178
                 =
2015-08-31 00:53 METAR KMPO 310453Z AUTO 30004KT 10SM SCT043 SCT075 20/18 A3012 RMK AO2 SLP187
                 T02000178 402720139 =
2015-08-30 23:53 METAR KMPO 310353Z AUTO 32005KT 9SM FEW043 FEW055 SCT075 20/18 A3012 RMK AO2
                 SLP187 T02000178 =
2015-08-30 22:53 METAR KMPO 310253Z AUTO 29007KT 10SM FEW038 SCT047 BKN110 21/18 A3012 RMK AO2
                 SLP188 T02060178 50007 =
2015-08-30 21:53 METAR KMPO 310153Z AUTO 26004KT 8SM FEW120 20/18 A3013 RMK AO2 SLP191 T02000178
                 =
2015-08-30 20:53 METAR KMPO 310053Z AUTO 28004KT 8SM CLR 21/18 A3012 RMK AO2 SLP189 T02060183 =
2015-08-30 19:53 METAR KMPO 302353Z AUTO 27003KT 8SM FEW034 SCT060 22/19 A3010 RMK AO2 SLP183
                 60001 T02170189 10272 20211 53001 =
2015-08-30 17:53 METAR KMPO 302153Z AUTO 25007KT 10SM OVC120 26/17 A3010 RMK AO2 RAB2058E09
                 SLP183 P0000 T02560172 =
2015-08-30 16:53 METAR KMPO 302053Z AUTO 24008KT 10SM BKN045 BKN055 OVC075 26/17 A3010 RMK AO2
                 SLP181 T02560167 58016 =
2015-08-30 15:53 METAR KMPO 301953Z AUTO 25007KT 10SM FEW110 27/17 A3011 RMK AO2 SLP185 T02720172
                 =

Support USWX by starting your Amazon purchase here.